METAR Formatted Surface Weather Observation
Issued by NWS

Home | Current Version | Previous Version | Text Only | Print | Product List | Glossary On
Versions: 1 2 3 4
000
SPZS31 NSTU 230814
MTRSPP
SPECI NSTU 230812Z VRB03KT 7SM -SHRA SCT018TCU OVC040 26/25 A2989
RMK TCU ALQDS=



USA.gov is the U.S. government's official web portal to all federal, state and local government web resources and services.